createdAt,value
2022-09-05T00:02:39.246Z,5.63
2022-09-05T00:08:00.040Z,6.43
2022-09-05T00:13:08.198Z,6.05
2022-09-05T00:22:03.659Z,4.80
2022-09-05T00:24:31.663Z,5.40
2022-09-05T00:31:08.222Z,5.45
2022-09-05T00:35:51.924Z,8.88
2022-09-05T00:40:59.501Z,5.78
2022-09-05T00:46:10.649Z,4.53
2022-09-05T00:51:34.618Z,5.20
2022-09-05T00:57:00.942Z,5.40
2022-09-05T01:02:14.752Z,5.45
2022-09-05T01:07:44.135Z,5.88
2022-09-05T01:13:05.626Z,5.38
2022-09-05T01:18:22.974Z,5.60
2022-09-05T01:23:40.089Z,5.82
2022-09-05T01:29:16.759Z,5.72
2022-09-05T01:34:31.400Z,5.25
2022-09-05T01:40:14.946Z,5.43
2022-09-05T01:45:20.056Z,6.97
2022-09-05T01:50:37.842Z,7.60
2022-09-05T01:56:06.168Z,8.63
2022-09-05T02:01:25.311Z,9.50
2022-09-05T02:06:44.197Z,11.60
2022-09-05T02:11:52.752Z,12.50
2022-09-05T02:17:25.855Z,10.57
2022-09-05T02:22:45.966Z,10.63
2022-09-05T02:28:05.140Z,9.05
2022-09-05T02:33:19.825Z,7.65
2022-09-05T02:41:29.088Z,6.97
2022-09-05T02:45:21.087Z,8.18
2022-09-05T02:51:04.159Z,9.60
2022-09-05T02:57:43.274Z,9.82
2022-09-05T03:00:28.692Z,6.70
2022-09-05T03:05:39.908Z,6.30
2022-09-05T03:11:14.943Z,6.68
2022-09-05T03:16:47.770Z,6.05
2022-09-05T03:22:16.361Z,6.45
2022-09-05T03:28:04.147Z,7.13
2022-09-05T03:33:29.354Z,6.18
2022-09-05T03:39:18.246Z,6.18
2022-09-05T03:44:31.659Z,7.10
2022-09-05T03:52:34.180Z,5.88
2022-09-05T03:57:28.500Z,6.03
2022-09-05T04:01:18.933Z,6.03
2022-09-05T04:08:18.541Z,6.15
2022-09-05T04:12:15.825Z,6.00
2022-09-05T04:17:28.685Z,5.90
2022-09-05T04:22:42.067Z,5.65
2022-09-05T04:27:56.272Z,6.70
2022-09-05T04:33:06.475Z,6.55
2022-09-05T04:38:19.114Z,5.28
2022-09-05T04:43:37.177Z,6.43
2022-09-05T04:48:49.287Z,6.53
2022-09-05T04:54:20.113Z,6.70
2022-09-05T05:05:30.723Z,6.05
2022-09-05T05:06:09.766Z,6.95
2022-09-05T05:11:34.891Z,6.47
2022-09-05T05:18:13.402Z,6.40
2022-09-05T05:21:30.019Z,6.47
2022-09-05T05:26:37.823Z,6.18
2022-09-05T05:31:53.392Z,6.88
2022-09-05T05:37:03.101Z,6.32
2022-09-05T05:42:20.613Z,6.60
2022-09-05T05:47:32.196Z,6.82
2022-09-05T05:52:56.751Z,6.00
2022-09-05T05:58:14.597Z,6.00
2022-09-05T06:04:04.153Z,5.63
2022-09-05T06:14:34.793Z,5.72
2022-09-05T06:15:41.217Z,8.02
2022-09-05T06:22:08.806Z,7.13
2022-09-05T06:27:17.351Z,5.80
2022-09-05T06:32:33.643Z,6.57
2022-09-05T06:37:46.802Z,6.70
2022-09-05T06:43:12.311Z,6.45
2022-09-05T06:48:33.654Z,7.55
2022-09-05T06:54:12.421Z,26.20
2022-09-05T06:59:59.772Z,5.78
2022-09-05T07:05:37.170Z,4.53
2022-09-05T07:10:41.637Z,5.13
2022-09-05T07:15:55.791Z,5.70
2022-09-05T07:21:17.335Z,4.38
2022-09-05T07:26:52.652Z,4.70
2022-09-05T07:31:56.333Z,4.40
2022-09-05T07:37:14.747Z,5.75
2022-09-05T07:42:27.497Z,4.88
2022-09-05T07:47:34.468Z,5.85
2022-09-05T07:56:53.145Z,6.75
2022-09-05T07:58:17.046Z,6.68
2022-09-05T08:03:29.340Z,7.47
2022-09-05T08:09:18.136Z,5.93
2022-09-05T08:14:44.492Z,4.25
2022-09-05T08:20:05.524Z,4.32
2022-09-05T08:25:18.322Z,4.28
2022-09-05T08:30:28.000Z,4.07
2022-09-05T08:35:36.094Z,4.18
2022-09-05T08:40:44.761Z,4.07
2022-09-05T08:46:44.172Z,4.57
2022-09-05T08:51:29.359Z,5.65
2022-09-05T08:56:39.793Z,4.75
2022-09-05T09:02:45.100Z,4.75
2022-09-05T09:07:50.701Z,5.32
2022-09-05T09:13:16.350Z,4.70
2022-09-05T09:18:24.443Z,4.57
2022-09-05T09:23:46.871Z,4.40
2022-09-05T09:28:55.099Z,4.60
2022-09-05T09:34:29.429Z,4.55
2022-09-05T09:39:42.453Z,6.20
2022-09-05T09:45:28.337Z,4.80
2022-09-05T09:51:01.811Z,5.10
2022-09-05T09:56:29.399Z,5.18
2022-09-05T10:01:53.631Z,4.63
2022-09-05T10:10:51.894Z,4.60
2022-09-05T10:13:11.368Z,4.60
2022-09-05T10:18:38.768Z,4.05
2022-09-05T10:24:28.058Z,3.70
2022-09-05T10:29:50.303Z,4.30
2022-09-05T10:35:15.103Z,3.47
2022-09-05T10:40:27.235Z,2.42
2022-09-05T10:45:46.152Z,2.97
2022-09-05T10:50:55.100Z,3.67
2022-09-05T10:56:08.281Z,2.97
2022-09-05T11:02:20.819Z,3.50
2022-09-05T11:06:56.926Z,3.80
2022-09-05T11:12:10.100Z,3.35
2022-09-05T11:17:31.691Z,4.40
2022-09-05T11:22:40.190Z,3.78
2022-09-05T11:27:48.169Z,3.75
2022-09-05T11:39:58.916Z,3.55
2022-09-05T11:40:05.508Z,3.88
2022-09-05T11:44:33.947Z,3.90
2022-09-05T11:50:02.693Z,3.75
2022-09-05T11:55:48.311Z,4.47
2022-09-05T12:01:41.903Z,4.00
2022-09-05T12:16:59.169Z,4.38
2022-09-05T12:22:29.897Z,4.43
2022-09-05T12:27:46.203Z,4.15
2022-09-05T12:36:01.875Z,5.15
2022-09-05T12:40:56.296Z,4.30
2022-09-05T12:44:42.032Z,4.00
2022-09-05T12:50:03.021Z,3.75
2022-09-05T12:55:26.399Z,3.73
2022-09-05T13:03:13.739Z,3.85
2022-09-05T13:06:25.194Z,4.80
2022-09-05T13:14:47.917Z,4.20
2022-09-05T13:17:06.344Z,3.95
2022-09-05T13:22:11.735Z,5.07
2022-09-05T13:27:20.355Z,4.07
2022-09-05T13:43:31.151Z,4.03
2022-09-05T13:54:33.126Z,4.00
2022-09-05T13:59:44.852Z,4.15
2022-09-05T14:05:22.558Z,4.60
2022-09-05T14:11:01.134Z,4.80
2022-09-05T14:16:09.716Z,5.85
2022-09-05T14:21:20.090Z,3.60
2022-09-05T14:26:28.964Z,3.45
2022-09-05T14:37:36.650Z,3.22
2022-09-05T14:37:53.850Z,3.63
2022-09-05T14:42:55.151Z,3.10
2022-09-05T14:48:45.735Z,4.80
2022-09-05T14:54:02.186Z,4.43
2022-09-05T15:02:46.049Z,3.88
2022-09-05T15:04:48.356Z,6.63
2022-09-05T15:12:16.181Z,9.98
2022-09-05T15:16:02.806Z,10.82
2022-09-05T15:21:33.661Z,4.38
2022-09-05T15:26:52.736Z,3.58
2022-09-05T15:32:16.594Z,3.88
2022-09-05T15:37:26.241Z,4.85
2022-09-05T15:42:35.935Z,3.92
2022-09-05T15:47:42.776Z,3.70
2022-09-05T15:52:52.681Z,3.17
2022-09-05T15:58:05.824Z,3.20
2022-09-05T16:05:39.712Z,3.55
2022-09-05T16:10:45.313Z,3.13
2022-09-05T16:14:24.810Z,3.50
2022-09-05T16:23:24.443Z,6.25
2022-09-05T16:25:04.854Z,4.20
2022-09-05T16:30:15.764Z,3.70
2022-09-05T16:35:24.937Z,4.10
2022-09-05T16:40:33.743Z,3.70
2022-09-05T16:45:47.234Z,4.25
2022-09-05T16:50:57.899Z,4.50
2022-09-05T16:56:06.532Z,4.13
2022-09-05T17:01:42.727Z,6.15
2022-09-05T17:06:53.788Z,4.70
2022-09-05T17:12:02.430Z,7.43
2022-09-05T17:17:23.493Z,11.23
2022-09-05T17:25:40.079Z,6.53
2022-09-05T17:29:50.490Z,11.60
2022-09-05T17:33:45.218Z,14.85
2022-09-05T17:39:06.120Z,25.70
2022-09-05T17:44:19.499Z,13.55
2022-09-05T17:49:43.895Z,6.88
2022-09-05T17:54:52.606Z,7.07
2022-09-05T17:59:57.916Z,6.80
2022-09-05T18:05:09.053Z,8.30
2022-09-05T18:10:27.462Z,7.10
2022-09-05T18:16:12.564Z,9.23
2022-09-05T18:21:22.471Z,7.75
2022-09-05T18:26:28.779Z,12.65
2022-09-05T18:32:02.213Z,9.18
2022-09-05T18:37:53.386Z,9.10
2022-09-05T18:43:10.500Z,10.32
2022-09-05T18:48:16.433Z,6.97
2022-09-05T18:53:35.782Z,6.82
2022-09-05T18:58:51.734Z,7.07
2022-09-05T19:04:00.797Z,6.67
2022-09-05T19:09:10.718Z,7.47
2022-09-05T19:14:29.218Z,12.57
2022-09-05T19:19:34.320Z,13.00
2022-09-05T19:24:45.653Z,13.35
2022-09-05T19:37:14.797Z,12.80
2022-09-05T19:37:26.228Z,10.82
2022-09-05T19:47:29.508Z,22.48
2022-09-05T19:47:38.730Z,12.47
2022-09-05T19:51:44.919Z,22.13
2022-09-05T19:56:52.763Z,17.00
2022-09-05T20:01:58.067Z,31.52
2022-09-05T20:07:14.390Z,52.40
2022-09-05T20:12:37.766Z,25.88
2022-09-05T20:17:46.082Z,57.55
2022-09-05T20:22:53.191Z,52.05
2022-09-05T20:28:07.124Z,15.82
2022-09-05T20:33:21.291Z,11.60
2022-09-05T20:43:15.202Z,13.00
2022-09-05T20:44:01.690Z,34.40
2022-09-05T20:54:08.498Z,44.00
2022-09-05T20:54:41.952Z,37.90
2022-09-05T20:59:50.559Z,33.17
2022-09-05T21:05:06.612Z,33.00
2022-09-05T21:10:30.134Z,29.98
2022-09-05T21:15:52.948Z,12.70
2022-09-05T21:21:01.611Z,9.80
2022-09-05T21:26:08.323Z,9.80
2022-09-05T21:31:17.068Z,8.90
2022-09-05T21:36:22.822Z,10.30
2022-09-05T21:41:29.573Z,11.63
2022-09-05T21:47:37.715Z,16.02
2022-09-05T21:52:07.322Z,24.08
2022-09-05T21:59:26.889Z,11.38
2022-09-05T22:02:53.638Z,8.63
2022-09-05T22:08:01.592Z,11.55
2022-09-05T22:13:06.691Z,14.05
2022-09-05T22:18:17.484Z,13.18
2022-09-05T22:23:23.335Z,8.75
2022-09-05T22:28:33.623Z,10.65
2022-09-05T22:33:41.735Z,9.82
2022-09-05T22:38:47.798Z,9.45
2022-09-05T22:43:53.350Z,9.27
2022-09-05T22:49:01.134Z,9.32
2022-09-05T22:54:06.333Z,8.48
2022-09-05T22:59:15.034Z,9.32
2022-09-05T23:04:23.730Z,10.30
2022-09-05T23:09:31.519Z,9.07
2022-09-05T23:14:36.710Z,11.55
2022-09-05T23:19:44.594Z,9.50
2022-09-05T23:24:49.836Z,9.88
2022-09-05T23:29:54.998Z,9.80
2022-09-05T23:35:02.846Z,10.10
2022-09-05T23:40:09.312Z,10.07
2022-09-05T23:45:14.742Z,10.48
2022-09-05T23:50:23.231Z,9.63
2022-09-05T23:55:30.226Z,9.00
